createdAt,value
2019-03-28T00:01:27.278Z,102282.17
2019-03-28T00:03:58.893Z,102287.59
2019-03-28T00:06:30.314Z,102288.36
2019-03-28T00:09:01.747Z,102284.56
2019-03-28T00:11:35.165Z,102279.95
2019-03-28T00:14:06.622Z,102287.46
2019-03-28T00:16:38.292Z,102285.43
2019-03-28T00:19:09.811Z,102288.78
2019-03-28T00:21:41.246Z,102288.23
2019-03-28T00:24:20.438Z,102286.97
2019-03-28T00:26:51.983Z,102287.30
2019-03-28T00:29:23.504Z,102282.24
2019-03-28T00:31:54.909Z,102282.03
2019-03-28T00:34:26.321Z,102289.00
2019-03-28T00:36:57.713Z,102280.17
2019-03-28T00:39:29.469Z,102286.81
2019-03-28T00:42:00.978Z,102279.55
2019-03-28T00:44:32.399Z,102280.86
2019-03-28T00:47:05.128Z,102269.47
2019-03-28T00:49:36.624Z,102282.95
2019-03-28T00:52:08.437Z,102278.73
2019-03-28T00:54:40.136Z,102276.89
2019-03-28T00:57:11.523Z,102272.81
2019-03-28T00:59:43.031Z,102271.39
2019-03-28T01:02:14.795Z,102265.41
2019-03-28T01:04:46.235Z,102263.80
2019-03-28T01:07:19.960Z,102264.44
2019-03-28T01:09:51.588Z,102262.40
2019-03-28T01:12:22.972Z,102263.34
2019-03-28T01:14:55.426Z,102263.34
2019-03-28T01:17:27.310Z,102259.33
2019-03-28T01:19:58.903Z,102263.18
2019-03-28T01:22:31.057Z,102275.41
2019-03-28T01:25:02.586Z,102269.75
2019-03-28T01:27:33.993Z,102277.42
2019-03-28T01:30:06.381Z,102270.16
2019-03-28T01:32:37.846Z,102266.29
2019-03-28T01:35:09.419Z,102272.39
2019-03-28T01:37:40.924Z,102269.00
2019-03-28T01:40:12.455Z,102270.94
2019-03-28T01:42:43.956Z,102269.45
2019-03-28T01:45:15.404Z,102264.98
2019-03-28T01:47:47.080Z,102273.34
2019-03-28T01:50:18.587Z,102274.72
2019-03-28T01:52:51.097Z,102268.91
2019-03-28T01:55:22.818Z,102284.40
2019-03-28T01:57:54.536Z,102278.22
2019-03-28T02:00:25.921Z,102272.95
2019-03-28T02:02:57.291Z,102278.81
2019-03-28T02:05:29.350Z,102275.71
2019-03-28T02:08:02.715Z,102283.87
2019-03-28T02:10:34.241Z,102283.00
2019-03-28T02:13:05.654Z,102279.99
2019-03-28T02:15:38.041Z,102286.59
2019-03-28T02:18:09.508Z,102287.56
2019-03-28T02:20:41.186Z,102279.67
2019-03-28T02:23:13.044Z,102284.97
2019-03-28T02:25:44.872Z,102286.48
2019-03-28T02:28:16.757Z,102288.27
2019-03-28T02:30:48.279Z,102287.48
2019-03-28T02:33:19.711Z,102293.68
2019-03-28T02:35:51.519Z,102295.00
2019-03-28T02:38:23.648Z,102302.00
2019-03-28T02:40:55.555Z,102298.02
2019-03-28T02:43:27.435Z,102293.70
2019-03-28T02:45:59.171Z,102300.66
2019-03-28T02:48:32.648Z,102301.98
2019-03-28T02:51:04.205Z,102300.55
2019-03-28T02:53:35.635Z,102303.61
2019-03-28T02:56:07.231Z,102307.59
2019-03-28T02:58:38.620Z,102305.10
2019-03-28T03:01:10.004Z,102308.95
2019-03-28T03:03:41.502Z,102300.66
2019-03-28T03:06:13.203Z,102305.47
2019-03-28T03:08:44.841Z,102299.84
2019-03-28T03:11:16.284Z,102309.56
2019-03-28T03:13:47.672Z,102290.77
2019-03-28T03:16:19.127Z,102306.80
2019-03-28T03:18:50.521Z,102305.61
2019-03-28T03:21:22.262Z,102311.37
2019-03-28T03:23:54.123Z,102305.56
2019-03-28T03:26:25.679Z,102313.00
2019-03-28T03:28:58.561Z,102314.77
2019-03-28T03:31:32.443Z,102309.98
2019-03-28T03:34:05.334Z,102313.09
2019-03-28T03:36:38.681Z,102313.16
2019-03-28T03:39:10.907Z,102314.82
2019-03-28T03:41:42.637Z,102314.83
2019-03-28T03:44:14.054Z,102315.22
2019-03-28T03:46:45.965Z,102322.23
2019-03-28T03:49:18.304Z,102321.45
2019-03-28T03:51:49.822Z,102318.43
2019-03-28T03:54:22.004Z,102317.97
2019-03-28T03:56:53.602Z,102311.39
2019-03-28T03:59:25.220Z,102315.34
2019-03-28T04:01:56.891Z,102318.42
2019-03-28T04:04:28.844Z,102317.52
2019-03-28T04:07:00.690Z,102319.30
2019-03-28T04:09:33.509Z,102331.53
2019-03-28T04:12:04.857Z,102336.53
2019-03-28T04:14:36.237Z,102334.83
2019-03-28T04:17:07.970Z,102334.89
2019-03-28T04:19:39.912Z,102337.84
2019-03-28T04:22:11.300Z,102341.87
2019-03-28T04:24:42.710Z,102334.36
2019-03-28T04:27:14.360Z,102337.52
2019-03-28T04:29:45.753Z,102337.05
2019-03-28T04:32:17.392Z,102344.91
2019-03-28T04:34:48.842Z,102341.00
2019-03-28T04:37:20.908Z,102347.14
2019-03-28T04:39:52.299Z,102349.83
2019-03-28T04:42:23.957Z,102349.69
2019-03-28T04:44:55.913Z,102347.52
2019-03-28T04:47:27.773Z,102325.34
2019-03-28T04:49:59.306Z,102325.34
2019-03-28T04:52:32.016Z,102346.33
2019-03-28T04:55:03.849Z,102344.51
2019-03-28T04:57:35.601Z,102349.49
2019-03-28T05:00:07.795Z,102350.75
2019-03-28T05:02:39.547Z,102354.63
2019-03-28T05:05:11.009Z,102354.91
2019-03-28T05:07:42.463Z,102360.56
2019-03-28T05:10:15.316Z,102358.92
2019-03-28T05:12:47.470Z,102356.86
2019-03-28T05:15:20.363Z,102357.34
2019-03-28T05:17:52.166Z,102363.78
2019-03-28T05:20:24.159Z,102367.84
2019-03-28T05:22:55.551Z,102369.11
2019-03-28T05:25:26.929Z,102370.36
2019-03-28T05:27:59.328Z,102373.98
2019-03-28T05:30:31.727Z,102375.75
2019-03-28T05:33:03.409Z,102377.92
2019-03-28T05:35:35.007Z,102373.13
2019-03-28T05:38:06.431Z,102376.16
2019-03-28T05:40:38.102Z,102372.72
2019-03-28T05:43:09.824Z,102383.52
2019-03-28T05:45:41.488Z,102385.48
2019-03-28T05:48:13.130Z,102386.30
2019-03-28T05:50:45.033Z,102389.84
2019-03-28T05:53:16.982Z,102398.52
2019-03-28T05:55:48.478Z,102399.44
2019-03-28T05:58:21.753Z,102400.65
2019-03-28T06:00:57.792Z,102400.64
2019-03-28T06:03:29.725Z,102401.83
2019-03-28T06:06:01.088Z,102405.05
2019-03-28T06:08:32.975Z,102406.65
2019-03-28T06:11:06.355Z,102404.38
2019-03-28T06:13:38.062Z,102404.86
2019-03-28T06:16:09.453Z,102406.48
2019-03-28T06:18:41.098Z,102401.28
2019-03-28T06:21:12.470Z,102406.36
2019-03-28T06:23:44.390Z,102414.46
2019-03-28T06:26:15.874Z,102409.53
2019-03-28T06:28:47.707Z,102408.28
2019-03-28T06:31:19.406Z,102406.37
2019-03-28T06:33:51.608Z,102405.97
2019-03-28T06:36:23.412Z,102407.73
2019-03-28T06:38:55.137Z,102407.55
2019-03-28T06:41:28.143Z,102401.16
2019-03-28T06:43:59.794Z,102408.59
2019-03-28T06:46:31.536Z,102400.16
2019-03-28T06:49:03.668Z,102406.21
2019-03-28T06:51:36.493Z,102402.28
2019-03-28T06:54:08.263Z,102394.02
2019-03-28T06:56:39.859Z,102397.45
2019-03-28T06:59:11.720Z,102399.70
2019-03-28T07:01:44.717Z,102406.98
2019-03-28T07:04:16.625Z,102396.53
2019-03-28T07:06:48.004Z,102399.39
2019-03-28T07:09:19.375Z,102402.98
2019-03-28T07:11:51.483Z,102405.30
2019-03-28T07:14:22.856Z,102405.36
2019-03-28T07:16:54.659Z,102412.34
2019-03-28T07:19:26.285Z,102409.29
2019-03-28T07:21:57.960Z,102409.34
2019-03-28T07:24:29.937Z,102411.37
2019-03-28T07:27:01.430Z,102405.70
2019-03-28T07:29:33.078Z,102406.16
2019-03-28T07:32:06.360Z,102402.52
2019-03-28T07:34:38.078Z,102400.34
2019-03-28T07:37:09.448Z,102409.87
2019-03-28T07:39:41.364Z,102404.98
2019-03-28T07:42:13.072Z,102405.25
2019-03-28T07:44:44.684Z,102405.20
2019-03-28T07:47:16.378Z,102407.72
2019-03-28T07:49:48.009Z,102412.55
2019-03-28T07:52:20.164Z,102408.41
2019-03-28T07:54:51.882Z,102416.14
2019-03-28T07:57:23.274Z,102408.05
2019-03-28T08:00:04.023Z,102419.84
2019-03-28T08:02:27.706Z,102411.05
2019-03-28T08:05:01.557Z,102410.36
2019-03-28T08:07:44.385Z,102415.23
2019-03-28T08:10:08.179Z,102417.06
2019-03-28T08:12:40.030Z,102424.89
2019-03-28T08:15:12.294Z,102418.84
2019-03-28T08:17:44.012Z,102427.09
2019-03-28T08:20:15.762Z,102426.70
2019-03-28T08:22:47.281Z,102436.91
2019-03-28T08:25:18.771Z,102432.48
2019-03-28T08:27:50.676Z,102428.77
2019-03-28T08:30:36.489Z,102431.02
2019-03-28T08:33:08.263Z,102430.45
2019-03-28T08:35:39.818Z,102427.82
2019-03-28T08:38:11.228Z,102437.58
2019-03-28T08:40:44.822Z,102441.36
2019-03-28T08:43:16.996Z,102436.97
2019-03-28T08:45:48.381Z,102438.20
2019-03-28T08:48:19.786Z,102435.87
2019-03-28T08:50:51.198Z,102438.40
2019-03-28T08:53:22.562Z,102437.09
2019-03-28T08:55:56.290Z,102437.96
2019-03-28T08:58:27.613Z,102414.69
2019-03-28T09:00:59.295Z,102436.22
2019-03-28T09:03:30.930Z,102445.33
2019-03-28T09:06:02.919Z,102445.02
2019-03-28T09:08:34.312Z,102447.03
2019-03-28T09:11:06.047Z,102444.63
2019-03-28T09:13:38.433Z,102457.89
2019-03-28T09:16:10.197Z,102459.16
2019-03-28T09:18:42.193Z,102450.20
2019-03-28T09:21:13.919Z,102454.98
2019-03-28T09:23:45.298Z,102457.48
2019-03-28T09:26:16.674Z,102450.87
2019-03-28T09:28:48.084Z,102452.13
2019-03-28T09:31:22.269Z,102437.02
2019-03-28T09:33:54.134Z,102439.13
2019-03-28T09:36:26.310Z,102436.16
2019-03-28T09:38:58.141Z,102440.37
2019-03-28T09:41:30.519Z,102441.34
2019-03-28T09:44:02.182Z,102440.41
2019-03-28T09:46:33.556Z,102440.64
2019-03-28T09:49:05.030Z,102443.25
2019-03-28T09:51:36.414Z,102449.55
2019-03-28T09:54:07.796Z,102431.67
2019-03-28T09:56:39.440Z,102432.59
2019-03-28T09:59:10.829Z,102429.72
2019-03-28T10:01:42.731Z,102426.98
2019-03-28T10:04:14.589Z,102428.13
2019-03-28T10:06:46.008Z,102427.77
2019-03-28T10:09:17.718Z,102442.78
2019-03-28T10:11:49.153Z,102436.84
2019-03-28T10:14:20.527Z,102436.05
2019-03-28T10:16:52.230Z,102431.95
2019-03-28T10:19:23.614Z,102417.91
2019-03-28T10:21:55.545Z,102430.56
2019-03-28T10:24:26.918Z,102433.18
2019-03-28T10:26:58.431Z,102443.33
2019-03-28T10:29:30.385Z,102437.42
2019-03-28T10:32:01.879Z,102433.87
2019-03-28T10:34:33.615Z,102433.87
2019-03-28T10:37:05.077Z,102425.60
2019-03-28T10:39:36.766Z,102433.90
2019-03-28T10:42:09.158Z,102446.73
2019-03-28T10:44:41.067Z,102444.17
2019-03-28T10:47:12.550Z,102442.17
2019-03-28T10:49:44.479Z,102433.55
2019-03-28T10:52:16.437Z,102435.30
2019-03-28T10:54:48.273Z,102441.37
2019-03-28T10:57:29.725Z,102441.93
2019-03-28T10:59:52.768Z,102440.14
2019-03-28T11:02:24.662Z,102445.00
2019-03-28T11:04:56.361Z,102445.83
2019-03-28T11:07:27.770Z,102434.81
2019-03-28T11:09:59.355Z,102433.65
2019-03-28T11:12:31.093Z,102435.36
2019-03-28T11:15:02.471Z,102438.05
2019-03-28T11:17:34.652Z,102433.61
2019-03-28T11:20:07.117Z,102436.26
2019-03-28T11:22:38.485Z,102445.31
2019-03-28T11:25:10.081Z,102441.21
2019-03-28T11:27:41.602Z,102448.13
2019-03-28T11:30:13.423Z,102449.23
2019-03-28T11:32:45.371Z,102435.53
2019-03-28T11:35:16.974Z,102443.17
2019-03-28T11:37:48.591Z,102442.16
2019-03-28T11:40:20.448Z,102444.84
2019-03-28T11:42:52.323Z,102435.41
2019-03-28T11:45:26.854Z,102444.06
2019-03-28T11:47:56.816Z,102441.05
2019-03-28T11:50:28.664Z,102442.26
2019-03-28T11:53:00.169Z,102438.37
2019-03-28T11:55:31.588Z,102432.69
2019-03-28T11:58:03.531Z,102437.85
2019-03-28T12:00:34.931Z,102444.70
2019-03-28T12:03:06.872Z,102443.39
2019-03-28T12:05:38.253Z,102445.92
2019-03-28T12:08:10.216Z,102449.48
2019-03-28T12:10:42.164Z,102442.38
2019-03-28T12:13:13.624Z,102442.84
2019-03-28T12:15:45.265Z,102449.28
2019-03-28T12:18:16.884Z,102443.63
2019-03-28T12:20:48.470Z,102453.92
2019-03-28T12:23:20.143Z,102449.30
2019-03-28T12:25:51.860Z,102442.77
2019-03-28T12:28:24.196Z,102448.77
2019-03-28T12:30:56.093Z,102444.41
2019-03-28T12:33:28.435Z,102441.45
2019-03-28T12:35:59.804Z,102446.91
2019-03-28T12:38:31.505Z,102451.52
2019-03-28T12:41:02.930Z,102444.22
2019-03-28T12:43:35.132Z,102439.06
2019-03-28T12:46:06.522Z,102445.19
2019-03-28T12:48:38.160Z,102444.64
2019-03-28T12:51:10.128Z,102453.25
2019-03-28T12:53:41.991Z,102450.77
2019-03-28T12:56:13.724Z,102452.31
2019-03-28T12:58:45.873Z,102446.78
2019-03-28T13:01:17.521Z,102447.08
2019-03-28T13:03:49.107Z,102455.80
2019-03-28T13:06:20.784Z,102450.08
2019-03-28T13:08:52.097Z,102448.45
2019-03-28T13:11:23.964Z,102452.09
2019-03-28T13:13:55.702Z,102443.08
2019-03-28T13:16:27.305Z,102451.17
2019-03-28T13:19:00.241Z,102454.39
2019-03-28T13:21:32.116Z,102453.70
2019-03-28T13:24:03.496Z,102447.06
2019-03-28T13:26:34.989Z,102455.61
2019-03-28T13:29:06.422Z,102450.50
2019-03-28T13:31:38.183Z,102452.73
2019-03-28T13:34:10.500Z,102448.51
2019-03-28T13:36:42.976Z,102454.36
2019-03-28T13:39:14.734Z,102458.55
2019-03-28T13:41:46.398Z,102454.70
2019-03-28T13:44:17.856Z,102454.70
2019-03-28T13:46:50.215Z,102444.80
2019-03-28T13:49:21.866Z,102449.75
2019-03-28T13:51:56.294Z,102449.91
2019-03-28T13:54:28.070Z,102441.80
2019-03-28T13:57:00.115Z,102435.16
2019-03-28T13:59:35.307Z,102435.16
2019-03-28T14:02:07.638Z,102433.35
2019-03-28T14:04:39.098Z,102431.10
2019-03-28T14:07:11.122Z,102433.09
2019-03-28T14:09:44.649Z,102433.67
2019-03-28T14:12:16.347Z,102433.02
2019-03-28T14:14:47.823Z,102430.91
2019-03-28T14:17:19.710Z,102425.64
2019-03-28T14:19:51.243Z,102423.77
2019-03-28T14:22:23.849Z,102427.31
2019-03-28T14:24:55.498Z,102424.70
2019-03-28T14:27:27.386Z,102420.70
2019-03-28T14:29:58.802Z,102422.03
2019-03-28T14:32:33.097Z,102415.80
2019-03-28T14:35:04.259Z,102411.36
2019-03-28T14:37:35.727Z,102416.16
2019-03-28T14:40:08.217Z,102419.59
2019-03-28T14:42:40.808Z,102418.64
2019-03-28T14:45:12.572Z,102420.72
2019-03-28T14:47:44.594Z,102421.92
2019-03-28T14:50:18.466Z,102419.19
2019-03-28T14:52:50.166Z,102416.86
2019-03-28T14:55:22.293Z,102415.94
2019-03-28T14:57:53.765Z,102418.58
2019-03-28T15:00:46.776Z,102422.52
2019-03-28T15:03:26.203Z,102424.51
2019-03-28T15:05:52.975Z,102417.91
2019-03-28T15:08:24.369Z,102418.97
2019-03-28T15:10:55.773Z,102417.13
2019-03-28T15:13:27.515Z,102424.62
2019-03-28T15:15:59.278Z,102419.36
2019-03-28T15:18:31.213Z,102420.57
2019-03-28T15:21:02.611Z,102419.59
2019-03-28T15:23:34.045Z,102417.71
2019-03-28T15:26:06.139Z,102421.27
2019-03-28T15:28:37.555Z,102425.02
2019-03-28T15:31:08.951Z,102417.20
2019-03-28T15:33:40.726Z,102414.66
2019-03-28T15:36:12.181Z,102418.50
2019-03-28T15:38:43.914Z,102423.06
2019-03-28T15:41:16.062Z,102420.16
2019-03-28T15:43:47.924Z,102423.84
2019-03-28T15:46:20.081Z,102418.69
2019-03-28T15:48:51.728Z,102419.66
2019-03-28T15:51:23.696Z,102426.06
2019-03-28T15:53:55.903Z,102427.45
2019-03-28T15:56:27.291Z,102418.01
2019-03-28T15:58:59.216Z,102431.13
2019-03-28T16:01:30.786Z,102427.10
2019-03-28T16:04:02.833Z,102426.24
2019-03-28T16:06:34.217Z,102427.55
2019-03-28T16:09:07.498Z,102426.17
2019-03-28T16:11:39.126Z,102424.05
2019-03-28T16:14:11.050Z,102430.73
2019-03-28T16:16:42.475Z,102430.61
2019-03-28T16:19:14.210Z,102429.16
2019-03-28T16:21:46.639Z,102436.48
2019-03-28T16:24:18.065Z,102426.91
2019-03-28T16:26:49.971Z,102432.42
2019-03-28T16:29:21.358Z,102438.30
2019-03-28T16:31:53.055Z,102434.50
2019-03-28T16:34:24.459Z,102435.72
2019-03-28T16:36:56.138Z,102436.63
2019-03-28T16:39:28.208Z,102438.62
2019-03-28T16:41:59.947Z,102438.27
2019-03-28T16:44:31.438Z,102441.14
2019-03-28T16:47:02.865Z,102436.08
2019-03-28T16:49:34.671Z,102444.25
2019-03-28T16:52:06.707Z,102440.73
2019-03-28T16:54:38.094Z,102437.30
2019-03-28T16:57:09.488Z,102438.38
2019-03-28T16:59:43.140Z,102432.85
2019-03-28T17:02:14.562Z,102435.83
2019-03-28T17:04:46.349Z,102437.45
2019-03-28T17:07:18.195Z,102435.52
2019-03-28T17:09:50.455Z,102438.77
2019-03-28T17:12:21.921Z,102434.08
2019-03-28T17:14:53.912Z,102434.86
2019-03-28T17:17:25.601Z,102433.04
2019-03-28T17:19:57.121Z,102431.32
2019-03-28T17:22:28.523Z,102441.28
2019-03-28T17:25:00.054Z,102441.82
2019-03-28T17:27:32.277Z,102437.66
2019-03-28T17:30:07.362Z,102438.88
2019-03-28T17:32:39.123Z,102439.88
2019-03-28T17:35:12.976Z,102434.25
2019-03-28T17:37:44.981Z,102436.98
2019-03-28T17:40:19.751Z,102439.05
2019-03-28T17:42:51.144Z,102439.80
2019-03-28T17:45:22.547Z,102440.66
2019-03-28T17:47:54.418Z,102443.07
2019-03-28T17:50:25.860Z,102435.86
2019-03-28T17:52:57.273Z,102442.84
2019-03-28T17:55:29.767Z,102443.02
2019-03-28T17:58:01.686Z,102448.58
2019-03-28T18:00:33.445Z,102452.30
2019-03-28T18:03:09.542Z,102443.75
2019-03-28T18:05:40.676Z,102444.03
2019-03-28T18:08:11.982Z,102443.16
2019-03-28T18:10:43.715Z,102443.16
2019-03-28T18:13:15.082Z,102449.80
2019-03-28T18:15:46.889Z,102449.30
2019-03-28T18:18:18.558Z,102450.15
2019-03-28T18:20:50.336Z,102449.88
2019-03-28T18:23:21.705Z,102456.34
2019-03-28T18:25:53.962Z,102458.47
2019-03-28T18:28:25.913Z,102459.90
2019-03-28T18:30:57.375Z,102455.33
2019-03-28T18:33:29.841Z,102465.62
2019-03-28T18:36:01.839Z,102465.84
2019-03-28T18:38:33.540Z,102470.13
2019-03-28T18:41:05.185Z,102466.92
2019-03-28T18:43:36.587Z,102467.91
2019-03-28T18:46:09.677Z,102470.66
2019-03-28T18:48:41.776Z,102475.36
2019-03-28T18:51:13.381Z,102483.31
2019-03-28T18:53:45.451Z,102479.04
2019-03-28T18:56:17.141Z,102481.02
2019-03-28T18:58:49.011Z,102478.74
2019-03-28T19:01:20.713Z,102477.52
2019-03-28T19:03:52.465Z,102479.97
2019-03-28T19:06:23.943Z,102475.13
2019-03-28T19:08:55.869Z,102481.72
2019-03-28T19:11:27.877Z,102473.45
2019-03-28T19:13:59.484Z,102475.10
2019-03-28T19:16:31.189Z,102477.29
2019-03-28T19:19:02.878Z,102474.44
2019-03-28T19:21:34.734Z,102477.91
2019-03-28T19:24:06.187Z,102474.17
2019-03-28T19:26:37.966Z,102476.98
2019-03-28T19:29:09.613Z,102480.45
2019-03-28T19:31:42.135Z,102476.56
2019-03-28T19:34:13.904Z,102474.70
2019-03-28T19:36:45.869Z,102473.37
2019-03-28T19:39:26.878Z,102478.34
2019-03-28T19:41:58.655Z,102478.58
2019-03-28T19:44:30.637Z,102480.30
2019-03-28T19:47:03.478Z,102486.58
2019-03-28T19:49:36.008Z,102479.16
2019-03-28T19:52:07.652Z,102480.52
2019-03-28T19:54:39.641Z,102481.45
2019-03-28T19:57:11.118Z,102489.91
2019-03-28T19:59:46.337Z,102484.46
2019-03-28T20:02:17.926Z,102484.46
2019-03-28T20:04:50.151Z,102495.08
2019-03-28T20:07:22.249Z,102496.66
2019-03-28T20:09:57.332Z,102488.19
2019-03-28T20:12:28.204Z,102490.38
2019-03-28T20:15:00.256Z,102490.16
2019-03-28T20:17:31.898Z,102490.84
2019-03-28T20:20:04.180Z,102495.77
2019-03-28T20:22:36.249Z,102495.67
2019-03-28T20:25:07.901Z,102493.02
2019-03-28T20:27:40.971Z,102494.25
2019-03-28T20:30:12.795Z,102493.95
2019-03-28T20:32:44.582Z,102497.45
2019-03-28T20:35:16.096Z,102492.75
2019-03-28T20:37:47.604Z,102490.81
2019-03-28T20:40:19.241Z,102501.22
2019-03-28T20:42:50.819Z,102502.52
2019-03-28T20:45:23.690Z,102502.52
2019-03-28T20:47:55.380Z,102499.22
2019-03-28T20:50:27.643Z,102500.30
2019-03-28T20:53:00.214Z,102500.48
2019-03-28T20:55:31.865Z,102498.32
2019-03-28T20:58:03.360Z,102505.27
2019-03-28T21:00:41.129Z,102504.63
2019-03-28T21:03:12.746Z,102503.83
2019-03-28T21:05:45.185Z,102507.40
2019-03-28T21:08:16.907Z,102510.05
2019-03-28T21:10:48.650Z,102509.25
2019-03-28T21:13:20.113Z,102507.42
2019-03-28T21:15:51.674Z,102506.05
2019-03-28T21:18:23.720Z,102516.08
2019-03-28T21:20:55.220Z,102513.30
2019-03-28T21:23:26.899Z,102513.42
2019-03-28T21:25:58.341Z,102515.20
2019-03-28T21:28:30.326Z,102511.83
2019-03-28T21:31:02.634Z,102505.61
2019-03-28T21:33:34.094Z,102511.67
2019-03-28T21:36:05.571Z,102506.69
2019-03-28T21:38:37.038Z,102513.48
2019-03-28T21:41:08.596Z,102505.17
2019-03-28T21:43:40.145Z,102513.02
2019-03-28T21:46:11.531Z,102512.06
2019-03-28T21:48:43.183Z,102516.96
2019-03-28T21:51:15.241Z,102512.59
2019-03-28T21:53:46.769Z,102508.56
2019-03-28T21:56:18.288Z,102513.03
2019-03-28T21:58:49.699Z,102513.27
2019-03-28T22:01:21.363Z,102507.98
2019-03-28T22:03:53.922Z,102514.05
2019-03-28T22:06:25.654Z,102511.28
2019-03-28T22:08:57.279Z,102501.89
2019-03-28T22:11:29.078Z,102511.19
2019-03-28T22:14:00.757Z,102501.83
2019-03-28T22:16:32.480Z,102495.36
2019-03-28T22:19:05.414Z,102507.19
2019-03-28T22:21:36.933Z,102504.82
2019-03-28T22:24:08.595Z,102506.27
2019-03-28T22:26:40.050Z,102502.48
2019-03-28T22:29:11.923Z,102508.75
2019-03-28T22:31:43.920Z,102501.64
2019-03-28T22:34:15.299Z,102505.13
2019-03-28T22:36:57.118Z,102504.90
2019-03-28T22:39:20.321Z,102508.63
2019-03-28T22:41:51.697Z,102502.23
2019-03-28T22:44:24.242Z,102513.85
2019-03-28T22:46:56.538Z,102510.86
2019-03-28T22:49:27.918Z,102516.94
2019-03-28T22:51:59.693Z,102514.20
2019-03-28T22:54:31.558Z,102517.69
2019-03-28T22:57:04.055Z,102516.04
2019-03-28T22:59:35.426Z,102515.32
2019-03-28T23:02:07.026Z,102514.37
2019-03-28T23:04:39.360Z,102515.64
2019-03-28T23:07:11.531Z,102512.22
2019-03-28T23:09:42.940Z,102518.41
2019-03-28T23:12:15.433Z,102518.05
2019-03-28T23:14:47.224Z,102519.93
2019-03-28T23:17:18.631Z,102513.53
2019-03-28T23:19:50.319Z,102520.93
2019-03-28T23:22:21.830Z,102520.67
2019-03-28T23:24:53.221Z,102516.45
2019-03-28T23:27:25.389Z,102517.51
2019-03-28T23:29:57.938Z,102516.27
2019-03-28T23:32:29.601Z,102509.56
2019-03-28T23:35:01.261Z,102518.60
2019-03-28T23:37:33.170Z,102513.22
2019-03-28T23:40:05.054Z,102512.93
2019-03-28T23:42:36.811Z,102512.39
2019-03-28T23:45:11.394Z,102516.70
2019-03-28T23:47:42.944Z,102517.50
2019-03-28T23:50:14.950Z,102513.69
2019-03-28T23:52:46.619Z,102506.27
2019-03-28T23:55:18.966Z,102501.55
2019-03-28T23:57:50.809Z,102508.02
